createdAt,value
2023-04-02T00:00:49.190Z,94411.00
2023-04-02T00:01:49.230Z,94409.00
2023-04-02T00:02:49.284Z,94411.00
2023-04-02T00:03:49.257Z,94407.00
2023-04-02T00:04:49.242Z,94407.00
2023-04-02T00:05:49.253Z,94411.00
2023-04-02T00:06:49.269Z,94411.00
2023-04-02T00:07:49.287Z,94409.00
2023-04-02T00:08:49.289Z,94409.00
2023-04-02T00:09:49.312Z,94411.00
2023-04-02T00:10:49.318Z,94411.00
2023-04-02T00:11:49.337Z,94411.00
2023-04-02T00:12:49.369Z,94415.00
2023-04-02T00:13:49.355Z,94415.00
2023-04-02T00:14:49.386Z,94413.00
2023-04-02T00:15:49.385Z,94413.00
2023-04-02T00:16:49.473Z,94413.00
2023-04-02T00:17:49.491Z,94415.00
2023-04-02T00:18:49.448Z,94417.00
2023-04-02T00:19:49.442Z,94417.00
2023-04-02T00:20:49.475Z,94417.00
2023-04-02T00:21:49.479Z,94417.00
2023-04-02T00:22:49.494Z,94419.00
2023-04-02T00:23:49.519Z,94417.00
2023-04-02T00:24:49.537Z,94417.00
2023-04-02T00:25:49.550Z,94415.00
2023-04-02T00:26:49.566Z,94417.00
2023-04-02T00:27:49.611Z,94417.00
2023-04-02T00:28:49.638Z,94419.00
2023-04-02T00:29:49.633Z,94421.00
2023-04-02T00:30:49.650Z,94423.00
2023-04-02T00:31:49.699Z,94425.00
2023-04-02T00:32:49.737Z,94425.00
2023-04-02T00:33:49.698Z,94427.00
2023-04-02T00:34:49.703Z,94425.00
2023-04-02T00:35:49.725Z,94425.00
2023-04-02T00:36:50.131Z,94429.00
2023-04-02T00:37:50.143Z,94427.00
2023-04-02T00:38:50.134Z,94429.00
2023-04-02T00:39:50.131Z,94429.00
2023-04-02T00:40:50.123Z,94427.00
2023-04-02T00:41:50.134Z,94427.00
2023-04-02T00:42:50.139Z,94427.00
2023-04-02T00:43:50.124Z,94425.00
2023-04-02T00:44:50.158Z,94425.00
2023-04-02T00:45:50.138Z,94425.00
2023-04-02T00:46:50.120Z,94423.00
2023-04-02T00:47:50.148Z,94423.00
2023-04-02T00:48:50.138Z,94421.00
2023-04-02T00:49:50.120Z,94421.00
2023-04-02T00:50:50.133Z,94423.00
2023-04-02T00:51:50.138Z,94423.00
2023-04-02T00:52:50.133Z,94423.00
2023-04-02T00:53:50.123Z,94427.00
2023-04-02T00:54:50.130Z,94423.00
2023-04-02T00:55:50.122Z,94423.00
2023-04-02T00:56:50.168Z,94429.00
2023-04-02T00:57:50.158Z,94427.00
2023-04-02T00:58:50.168Z,94425.00
2023-04-02T00:59:50.195Z,94423.00
2023-04-02T01:00:50.189Z,94423.00
2023-04-02T01:01:50.245Z,94421.00
2023-04-02T01:02:50.318Z,94423.00
2023-04-02T01:03:50.187Z,94421.00
2023-04-02T01:04:50.170Z,94419.00
2023-04-02T01:05:50.188Z,94419.00
2023-04-02T01:06:50.192Z,94417.00
2023-04-02T01:07:50.200Z,94419.00
2023-04-02T01:08:50.224Z,94419.00
2023-04-02T01:09:50.238Z,94417.00
2023-04-02T01:10:50.245Z,94419.00
2023-04-02T01:11:50.283Z,94421.00
2023-04-02T01:12:50.402Z,94419.00
2023-04-02T01:13:50.335Z,94419.00
2023-04-02T01:14:50.353Z,94421.00
2023-04-02T01:15:50.412Z,94421.00
2023-04-02T01:16:50.446Z,94427.00
2023-04-02T01:17:50.464Z,94423.00
2023-04-02T01:18:50.520Z,94427.00
2023-04-02T01:19:50.520Z,94427.00
2023-04-02T01:20:50.557Z,94427.00
2023-04-02T01:21:50.556Z,94423.00
2023-04-02T01:22:50.572Z,94423.00
2023-04-02T01:23:50.595Z,94425.00
2023-04-02T01:24:50.601Z,94425.00
2023-04-02T01:25:50.962Z,94427.00
2023-04-02T01:26:51.011Z,94427.00
2023-04-02T01:27:51.010Z,94429.00
2023-04-02T01:28:51.010Z,94425.00
2023-04-02T01:29:51.029Z,94423.00
2023-04-02T01:30:51.009Z,94427.00
2023-04-02T01:31:51.030Z,94427.00
2023-04-02T01:32:51.079Z,94425.00
2023-04-02T01:33:51.022Z,94427.00
2023-04-02T01:34:51.011Z,94427.00
2023-04-02T01:35:51.044Z,94427.00
2023-04-02T01:36:51.016Z,94427.00
2023-04-02T01:37:51.003Z,94429.00
2023-04-02T01:38:51.021Z,94429.00
2023-04-02T01:39:51.015Z,94431.00
2023-04-02T01:40:51.012Z,94433.00
2023-04-02T01:41:51.011Z,94433.00
2023-04-02T01:42:51.015Z,94433.00
2023-04-02T01:43:51.021Z,94437.00
2023-04-02T01:44:51.027Z,94437.00
2023-04-02T01:45:51.602Z,94437.00
2023-04-02T01:46:51.103Z,94437.00
2023-04-02T01:47:51.032Z,94439.00
2023-04-02T01:48:51.034Z,94439.00
2023-04-02T01:49:51.025Z,94437.00
2023-04-02T01:50:50.117Z,94439.00
2023-04-02T01:51:51.053Z,94441.00
2023-04-02T01:52:51.075Z,94441.00
2023-04-02T01:53:51.081Z,94445.00
2023-04-02T01:54:51.106Z,94445.00
2023-04-02T01:55:51.116Z,94441.00
2023-04-02T01:56:51.171Z,94443.00
2023-04-02T01:57:51.142Z,94445.00
2023-04-02T01:58:51.170Z,94443.00
2023-04-02T01:59:51.185Z,94443.00
2023-04-02T02:00:51.264Z,94447.00
2023-04-02T02:01:51.287Z,94445.00
2023-04-02T02:02:51.296Z,94451.00
2023-04-02T02:03:51.287Z,94453.00
2023-04-02T02:04:51.293Z,94451.00
2023-04-02T02:05:51.285Z,94455.00
2023-04-02T02:06:51.302Z,94453.00
2023-04-02T02:07:51.323Z,94453.00
2023-04-02T02:08:51.346Z,94453.00
2023-04-02T02:09:51.363Z,94457.00
2023-04-02T02:10:51.386Z,94458.00
2023-04-02T02:11:51.406Z,94460.00
2023-04-02T02:12:51.425Z,94460.00
2023-04-02T02:13:51.444Z,94462.00
2023-04-02T02:14:51.467Z,94460.00
2023-04-02T02:15:51.499Z,94460.00
2023-04-02T02:16:51.506Z,94464.00
2023-04-02T02:17:51.553Z,94466.00
2023-04-02T02:18:51.539Z,94466.00
2023-04-02T02:19:51.557Z,94466.00
2023-04-02T02:20:51.605Z,94464.00
2023-04-02T02:21:52.548Z,94464.00
2023-04-02T02:22:51.615Z,94462.00
2023-04-02T02:23:51.631Z,94462.00
2023-04-02T02:24:51.650Z,94460.00
2023-04-02T02:25:51.671Z,94462.00
2023-04-02T02:26:51.681Z,94464.00
2023-04-02T02:27:51.697Z,94466.00
2023-04-02T02:28:51.734Z,94466.00
2023-04-02T02:29:51.805Z,94468.00
2023-04-02T02:30:52.555Z,94470.00
2023-04-02T02:31:51.902Z,94468.00
2023-04-02T02:32:52.092Z,94470.00
2023-04-02T02:33:51.875Z,94470.00
2023-04-02T02:34:51.897Z,94470.00
2023-04-02T02:35:51.940Z,94468.00
2023-04-02T02:36:52.000Z,94468.00
2023-04-02T02:37:51.953Z,94472.00
2023-04-02T02:38:54.272Z,94476.00
2023-04-02T02:39:51.979Z,94480.00
2023-04-02T02:40:51.989Z,94478.00
2023-04-02T02:41:52.003Z,94478.00
2023-04-02T02:42:52.020Z,94480.00
2023-04-02T02:43:52.563Z,94482.00
2023-04-02T02:44:52.048Z,94480.00
2023-04-02T02:45:52.095Z,94480.00
2023-04-02T02:46:52.064Z,94482.00
2023-04-02T02:47:52.097Z,94482.00
2023-04-02T02:48:52.092Z,94482.00
2023-04-02T02:49:52.131Z,94484.00
2023-04-02T02:50:52.112Z,94486.00
2023-04-02T02:51:52.114Z,94488.00
2023-04-02T02:52:52.148Z,94490.00
2023-04-02T02:53:52.138Z,94488.00
2023-04-02T02:54:52.140Z,94492.00
2023-04-02T02:55:52.156Z,94492.00
2023-04-02T02:56:52.232Z,94494.00
2023-04-02T02:57:52.173Z,94494.00
2023-04-02T02:58:52.188Z,94496.00
2023-04-02T02:59:52.209Z,94498.00
2023-04-02T03:00:52.195Z,94496.00
2023-04-02T03:01:52.197Z,94498.00
2023-04-02T03:02:52.307Z,94498.00
2023-04-02T03:03:52.396Z,94500.00
2023-04-02T03:04:52.225Z,94500.00
2023-04-02T03:05:52.242Z,94500.00
2023-04-02T03:06:52.245Z,94500.00
2023-04-02T03:07:52.254Z,94502.00
2023-04-02T03:08:52.296Z,94500.00
2023-04-02T03:09:52.292Z,94498.00
2023-04-02T03:10:52.299Z,94502.00
2023-04-02T03:11:52.313Z,94502.00
2023-04-02T03:12:52.317Z,94500.00
2023-04-02T03:13:52.335Z,94500.00
2023-04-02T03:14:52.343Z,94500.00
2023-04-02T03:15:52.402Z,94498.00
2023-04-02T03:16:52.371Z,94500.00
2023-04-02T03:17:52.469Z,94500.00
2023-04-02T03:18:52.396Z,94500.00
2023-04-02T03:19:52.413Z,94500.00
2023-04-02T03:20:52.429Z,94504.00
2023-04-02T03:21:52.436Z,94508.00
2023-04-02T03:22:52.441Z,94509.00
2023-04-02T03:23:52.462Z,94513.00
2023-04-02T03:24:52.519Z,94513.00
2023-04-02T03:25:52.504Z,94515.00
2023-04-02T03:26:52.506Z,94515.00
2023-04-02T03:27:52.520Z,94515.00
2023-04-02T03:28:52.526Z,94515.00
2023-04-02T03:29:52.538Z,94513.00
2023-04-02T03:30:52.599Z,94513.00
2023-04-02T03:31:53.071Z,94513.00
2023-04-02T03:32:52.579Z,94513.00
2023-04-02T03:33:53.576Z,94515.00
2023-04-02T03:34:52.581Z,94517.00
2023-04-02T03:35:52.605Z,94519.00
2023-04-02T03:36:52.603Z,94521.00
2023-04-02T03:37:52.619Z,94523.00
2023-04-02T03:38:52.627Z,94523.00
2023-04-02T03:39:53.589Z,94525.00
2023-04-02T03:40:52.689Z,94525.00
2023-04-02T03:41:53.578Z,94527.00
2023-04-02T03:42:52.685Z,94527.00
2023-04-02T03:43:52.712Z,94527.00
2023-04-02T03:44:51.704Z,94529.00
2023-04-02T03:45:52.713Z,94529.00
2023-04-02T03:46:52.802Z,94529.00
2023-04-02T03:47:52.774Z,94531.00
2023-04-02T03:48:52.756Z,94529.00
2023-04-02T03:49:52.766Z,94531.00
2023-04-02T03:50:52.772Z,94533.00
2023-04-02T03:51:52.786Z,94533.00
2023-04-02T03:52:52.798Z,94535.00
2023-04-02T03:53:52.806Z,94535.00
2023-04-02T03:54:53.585Z,94537.00
2023-04-02T03:55:52.952Z,94537.00
2023-04-02T03:56:53.016Z,94535.00
2023-04-02T03:57:52.981Z,94537.00
2023-04-02T03:58:53.005Z,94537.00
2023-04-02T03:59:53.043Z,94537.00
2023-04-02T04:00:53.064Z,94539.00
2023-04-02T04:01:53.109Z,94543.00
2023-04-02T04:02:53.153Z,94545.00
2023-04-02T04:03:53.131Z,94545.00
2023-04-02T04:04:53.125Z,94547.00
2023-04-02T04:05:53.163Z,94545.00
2023-04-02T04:06:53.181Z,94549.00
2023-04-02T04:07:53.200Z,94547.00
2023-04-02T04:08:53.238Z,94549.00
2023-04-02T04:09:53.259Z,94547.00
2023-04-02T04:10:53.341Z,94545.00
2023-04-02T04:11:53.338Z,94545.00
2023-04-02T04:12:53.385Z,94545.00
2023-04-02T04:13:53.384Z,94545.00
2023-04-02T04:14:53.406Z,94547.00
2023-04-02T04:15:54.085Z,94545.00
2023-04-02T04:16:53.524Z,94549.00
2023-04-02T04:17:53.497Z,94551.00
2023-04-02T04:18:53.478Z,94555.00
2023-04-02T04:19:53.502Z,94555.00
2023-04-02T04:20:53.526Z,94556.00
2023-04-02T04:21:53.544Z,94556.00
2023-04-02T04:22:53.556Z,94558.00
2023-04-02T04:23:53.609Z,94558.00
2023-04-02T04:24:53.669Z,94558.00
2023-04-02T04:25:54.589Z,94560.00
2023-04-02T04:26:53.621Z,94556.00
2023-04-02T04:27:54.591Z,94556.00
2023-04-02T04:28:53.711Z,94556.00
2023-04-02T04:29:53.702Z,94560.00
2023-04-02T04:30:53.721Z,94562.00
2023-04-02T04:31:53.761Z,94564.00
2023-04-02T04:32:53.807Z,94566.00
2023-04-02T04:33:53.783Z,94566.00
2023-04-02T04:34:53.876Z,94568.00
2023-04-02T04:35:53.841Z,94568.00
2023-04-02T04:36:53.926Z,94574.00
2023-04-02T04:37:54.603Z,94572.00
2023-04-02T04:38:53.874Z,94576.00
2023-04-02T04:39:53.886Z,94576.00
2023-04-02T04:40:53.935Z,94574.00
2023-04-02T04:41:53.919Z,94576.00
2023-04-02T04:42:53.943Z,94578.00
2023-04-02T04:43:53.966Z,94582.00
2023-04-02T04:44:54.004Z,94582.00
2023-04-02T04:45:54.020Z,94586.00
2023-04-02T04:46:54.605Z,94586.00
2023-04-02T04:47:54.067Z,94586.00
2023-04-02T04:48:54.068Z,94588.00
2023-04-02T04:49:54.089Z,94590.00
2023-04-02T04:50:54.103Z,94592.00
2023-04-02T04:51:54.616Z,94596.00
2023-04-02T04:52:54.148Z,94594.00
2023-04-02T04:53:54.163Z,94598.00
2023-04-02T04:54:54.191Z,94598.00
2023-04-02T04:55:54.212Z,94600.00
2023-04-02T04:56:54.248Z,94600.00
2023-04-02T04:57:54.252Z,94602.00
2023-04-02T04:58:54.285Z,94602.00
2023-04-02T04:59:54.301Z,94602.00
2023-04-02T05:00:54.338Z,94602.00
2023-04-02T05:01:54.341Z,94602.00
2023-04-02T05:02:54.397Z,94604.00
2023-04-02T05:03:54.372Z,94604.00
2023-04-02T05:04:54.515Z,94604.00
2023-04-02T05:05:54.437Z,94604.00
2023-04-02T05:06:54.452Z,94604.00
2023-04-02T05:07:54.481Z,94606.00
2023-04-02T05:08:54.498Z,94604.00
2023-04-02T05:09:54.531Z,94606.00
2023-04-02T05:11:09.106Z,94604.00
2023-04-02T05:11:54.554Z,94606.00
2023-04-02T05:12:54.567Z,94608.00
2023-04-02T05:13:54.579Z,94606.00
2023-04-02T05:14:54.607Z,94608.00
2023-04-02T05:15:54.672Z,94608.00
2023-04-02T05:16:54.662Z,94608.00
2023-04-02T05:17:54.645Z,94611.00
2023-04-02T05:18:55.625Z,94613.00
2023-04-02T05:19:54.675Z,94610.00
2023-04-02T05:20:54.693Z,94611.00
2023-04-02T05:21:54.708Z,94611.00
2023-04-02T05:22:54.715Z,94613.00
2023-04-02T05:23:54.762Z,94617.00
2023-04-02T05:24:54.965Z,94617.00
2023-04-02T05:25:54.764Z,94617.00
2023-04-02T05:26:54.785Z,94617.00
2023-04-02T05:27:54.796Z,94625.00
2023-04-02T05:28:54.887Z,94627.00
2023-04-02T05:29:54.827Z,94629.00
2023-04-02T05:30:54.819Z,94625.00
2023-04-02T05:31:54.833Z,94629.00
2023-04-02T05:32:54.915Z,94631.00
2023-04-02T05:33:54.873Z,94635.00
2023-04-02T05:34:54.876Z,94633.00
2023-04-02T05:35:54.928Z,94635.00
2023-04-02T05:36:54.963Z,94635.00
2023-04-02T05:37:54.946Z,94641.00
2023-04-02T05:38:54.936Z,94643.00
2023-04-02T05:39:54.960Z,94645.00
2023-04-02T05:40:54.970Z,94645.00
2023-04-02T05:41:54.977Z,94645.00
2023-04-02T05:42:54.991Z,94647.00
2023-04-02T05:43:55.015Z,94649.00
2023-04-02T05:44:55.020Z,94649.00
2023-04-02T05:45:55.032Z,94649.00
2023-04-02T05:46:55.112Z,94653.00
2023-04-02T05:47:55.081Z,94653.00
2023-04-02T05:48:55.102Z,94655.00
2023-04-02T05:49:55.090Z,94653.00
2023-04-02T05:50:55.102Z,94655.00
2023-04-02T05:51:57.433Z,94655.00
2023-04-02T05:52:55.142Z,94656.00
2023-04-02T05:53:55.195Z,94656.00
2023-04-02T05:54:55.193Z,94658.00
2023-04-02T05:55:55.188Z,94660.00
2023-04-02T05:56:55.231Z,94660.00
2023-04-02T05:58:13.537Z,94660.00
2023-04-02T05:58:55.364Z,94664.00
2023-04-02T05:59:55.266Z,94664.00
2023-04-02T06:00:55.289Z,94666.00
2023-04-02T06:01:55.320Z,94670.00
2023-04-02T06:02:55.379Z,94672.00
2023-04-02T06:03:55.408Z,94670.00
2023-04-02T06:04:55.368Z,94670.00
2023-04-02T06:05:55.372Z,94674.00
2023-04-02T06:06:55.375Z,94672.00
2023-04-02T06:07:55.411Z,94676.00
2023-04-02T06:08:55.403Z,94678.00
2023-04-02T06:09:55.442Z,94680.00
2023-04-02T06:10:55.436Z,94680.00
2023-04-02T06:11:55.446Z,94678.00
2023-04-02T06:12:55.474Z,94680.00
2023-04-02T06:13:55.487Z,94682.00
2023-04-02T06:14:55.496Z,94682.00
2023-04-02T06:15:55.513Z,94684.00
2023-04-02T06:16:55.658Z,94686.00
2023-04-02T06:17:55.628Z,94690.00
2023-04-02T06:18:55.584Z,94686.00
2023-04-02T06:19:55.585Z,94686.00
2023-04-02T06:20:55.631Z,94686.00
2023-04-02T06:21:56.131Z,94684.00
2023-04-02T06:22:56.139Z,94688.00
2023-04-02T06:23:55.676Z,94686.00
2023-04-02T06:24:55.699Z,94688.00
2023-04-02T06:25:55.720Z,94686.00
2023-04-02T06:26:56.115Z,94686.00
2023-04-02T06:27:56.121Z,94686.00
2023-04-02T06:28:56.134Z,94688.00
2023-04-02T06:29:56.122Z,94686.00
2023-04-02T06:30:56.133Z,94686.00
2023-04-02T06:31:56.167Z,94686.00
2023-04-02T06:32:56.190Z,94686.00
2023-04-02T06:33:56.130Z,94686.00
2023-04-02T06:34:56.117Z,94686.00
2023-04-02T06:35:56.148Z,94686.00
2023-04-02T06:36:56.212Z,94684.00
2023-04-02T06:37:56.121Z,94686.00
2023-04-02T06:38:56.122Z,94686.00
2023-04-02T06:39:56.122Z,94686.00
2023-04-02T06:40:58.232Z,94688.00
2023-04-02T06:41:56.138Z,94690.00
2023-04-02T06:42:56.121Z,94688.00
2023-04-02T06:43:56.124Z,94686.00
2023-04-02T06:44:56.121Z,94690.00
2023-04-02T06:45:56.147Z,94688.00
2023-04-02T06:46:56.120Z,94692.00
2023-04-02T06:47:56.165Z,94692.00
2023-04-02T06:48:56.128Z,94694.00
2023-04-02T06:49:56.119Z,94692.00
2023-04-02T06:50:56.128Z,94696.00
2023-04-02T06:51:56.134Z,94696.00
2023-04-02T06:52:56.174Z,94698.00
2023-04-02T06:53:56.156Z,94698.00
2023-04-02T06:54:56.421Z,94700.00
2023-04-02T06:55:56.192Z,94702.00
2023-04-02T06:56:56.282Z,94700.00
2023-04-02T06:57:56.228Z,94698.00
2023-04-02T06:58:56.242Z,94702.00
2023-04-02T06:59:56.261Z,94702.00
2023-04-02T07:00:56.296Z,94702.00
2023-04-02T07:01:56.347Z,94702.00
2023-04-02T07:02:56.418Z,94700.00
2023-04-02T07:03:56.339Z,94702.00
2023-04-02T07:04:56.544Z,94698.00
2023-04-02T07:05:56.374Z,94702.00
2023-04-02T07:06:56.380Z,94702.00
2023-04-02T07:07:56.397Z,94702.00
2023-04-02T07:08:56.679Z,94700.00
2023-04-02T07:09:56.430Z,94700.00
2023-04-02T07:10:56.442Z,94700.00
2023-04-02T07:11:56.459Z,94702.00
2023-04-02T07:12:56.470Z,94702.00
2023-04-02T07:13:56.485Z,94702.00
2023-04-02T07:14:56.499Z,94704.00
2023-04-02T07:15:56.546Z,94706.00
2023-04-02T07:16:56.537Z,94704.00
2023-04-02T07:17:56.570Z,94702.00
2023-04-02T07:18:56.561Z,94704.00
2023-04-02T07:19:56.569Z,94704.00
2023-04-02T07:20:56.596Z,94704.00
2023-04-02T07:21:56.606Z,94704.00
2023-04-02T07:22:56.722Z,94706.00
2023-04-02T07:23:56.633Z,94704.00
2023-04-02T07:24:56.679Z,94704.00
2023-04-02T07:25:56.659Z,94706.00
2023-04-02T07:26:56.688Z,94706.00
2023-04-02T07:27:57.195Z,94704.00
2023-04-02T07:28:56.704Z,94704.00
2023-04-02T07:29:56.722Z,94704.00
2023-04-02T07:30:56.734Z,94706.00
2023-04-02T07:31:56.774Z,94706.00
2023-04-02T07:32:56.848Z,94704.00
2023-04-02T07:33:57.214Z,94711.00
2023-04-02T07:34:57.131Z,94706.00
2023-04-02T07:35:57.187Z,94706.00
2023-04-02T07:36:56.833Z,94708.00
2023-04-02T07:37:57.172Z,94710.00
2023-04-02T07:38:57.197Z,94711.00
2023-04-02T07:39:57.656Z,94713.00
2023-04-02T07:40:57.202Z,94715.00
2023-04-02T07:41:57.202Z,94719.00
2023-04-02T07:42:57.174Z,94719.00
2023-04-02T07:43:57.181Z,94719.00
2023-04-02T07:44:57.177Z,94717.00
2023-04-02T07:45:57.181Z,94721.00
2023-04-02T07:46:57.718Z,94719.00
2023-04-02T07:47:57.219Z,94721.00
2023-04-02T07:48:57.181Z,94721.00
2023-04-02T07:49:57.183Z,94723.00
2023-04-02T07:50:57.177Z,94723.00
2023-04-02T07:51:57.180Z,94725.00
2023-04-02T07:52:57.175Z,94731.00
2023-04-02T07:53:57.201Z,94727.00
2023-04-02T07:54:57.177Z,94727.00
2023-04-02T07:55:57.176Z,94725.00
2023-04-02T07:56:57.217Z,94727.00
2023-04-02T07:57:57.188Z,94725.00
2023-04-02T07:58:57.173Z,94727.00
2023-04-02T07:59:57.195Z,94729.00
2023-04-02T08:01:00.180Z,94731.00
2023-04-02T08:01:57.286Z,94727.00
2023-04-02T08:02:58.271Z,94727.00
2023-04-02T08:03:57.315Z,94727.00
2023-04-02T08:04:57.273Z,94729.00
2023-04-02T08:05:57.308Z,94729.00
2023-04-02T08:06:57.309Z,94729.00
2023-04-02T08:07:57.332Z,94729.00
2023-04-02T08:08:57.342Z,94729.00
2023-04-02T08:09:57.381Z,94727.00
2023-04-02T08:10:57.355Z,94731.00
2023-04-02T08:11:57.372Z,94729.00
2023-04-02T08:12:57.403Z,94729.00
2023-04-02T08:13:57.393Z,94735.00
2023-04-02T08:14:57.400Z,94737.00
2023-04-02T08:15:57.416Z,94735.00
2023-04-02T08:16:57.529Z,94735.00
2023-04-02T08:17:57.510Z,94733.00
2023-04-02T08:18:57.507Z,94735.00
2023-04-02T08:19:57.528Z,94735.00
2023-04-02T08:20:57.561Z,94735.00
2023-04-02T08:21:57.585Z,94735.00
2023-04-02T08:22:57.622Z,94733.00
2023-04-02T08:23:57.661Z,94733.00
2023-04-02T08:24:57.694Z,94727.00
2023-04-02T08:25:57.722Z,94735.00
2023-04-02T08:26:57.761Z,94737.00
2023-04-02T08:27:57.795Z,94735.00
2023-04-02T08:28:57.890Z,94737.00
2023-04-02T08:29:57.870Z,94739.00
2023-04-02T08:31:00.699Z,94735.00
2023-04-02T08:31:57.909Z,94737.00
2023-04-02T08:32:57.968Z,94735.00
2023-04-02T08:33:57.944Z,94733.00
2023-04-02T08:34:57.957Z,94733.00
2023-04-02T08:35:58.002Z,94733.00
2023-04-02T08:36:57.994Z,94733.00
2023-04-02T08:37:58.007Z,94733.00
2023-04-02T08:38:58.016Z,94737.00
2023-04-02T08:39:58.038Z,94735.00
2023-04-02T08:40:58.044Z,94737.00
2023-04-02T08:41:58.079Z,94735.00
2023-04-02T08:42:58.090Z,94737.00
2023-04-02T08:43:58.125Z,94735.00
2023-04-02T08:44:58.156Z,94739.00
2023-04-02T08:45:58.182Z,94737.00
2023-04-02T08:46:58.158Z,94737.00
2023-04-02T08:47:58.705Z,94737.00
2023-04-02T08:48:58.193Z,94737.00
2023-04-02T08:49:58.232Z,94739.00
2023-04-02T08:50:58.224Z,94739.00
2023-04-02T08:51:58.245Z,94739.00
2023-04-02T08:52:58.265Z,94739.00
2023-04-02T08:53:58.272Z,94737.00
2023-04-02T08:54:59.185Z,94735.00
2023-04-02T08:55:58.298Z,94735.00
2023-04-02T08:57:01.247Z,94735.00
2023-04-02T08:57:58.340Z,94737.00
2023-04-02T08:59:01.187Z,94737.00
2023-04-02T08:59:58.361Z,94735.00
2023-04-02T09:00:58.397Z,94737.00
2023-04-02T09:01:58.462Z,94739.00
2023-04-02T09:03:13.191Z,94737.00
2023-04-02T09:03:58.422Z,94737.00
2023-04-02T09:04:58.496Z,94733.00
2023-04-02T09:05:58.435Z,94739.00
2023-04-02T09:06:58.453Z,94739.00
2023-04-02T09:07:58.470Z,94737.00
2023-04-02T09:08:58.490Z,94737.00
2023-04-02T09:09:58.493Z,94737.00
2023-04-02T09:10:58.870Z,94737.00
2023-04-02T09:11:58.524Z,94739.00
2023-04-02T09:12:58.541Z,94735.00
2023-04-02T09:13:58.562Z,94735.00
2023-04-02T09:14:58.697Z,94737.00
2023-04-02T09:15:58.625Z,94739.00
2023-04-02T09:16:58.628Z,94743.00
2023-04-02T09:17:59.622Z,94743.00
2023-04-02T09:18:58.621Z,94745.00
2023-04-02T09:19:58.637Z,94743.00
2023-04-02T09:20:58.652Z,94743.00
2023-04-02T09:21:58.682Z,94743.00
2023-04-02T09:22:58.683Z,94745.00
2023-04-02T09:23:58.716Z,94745.00
2023-04-02T09:24:58.718Z,94741.00
2023-04-02T09:26:04.212Z,94739.00
2023-04-02T09:26:58.752Z,94739.00
2023-04-02T09:27:58.777Z,94743.00
2023-04-02T09:28:58.785Z,94741.00
2023-04-02T09:29:58.800Z,94739.00
2023-04-02T09:30:58.815Z,94739.00
2023-04-02T09:31:58.924Z,94741.00
2023-04-02T09:33:01.835Z,94741.00
2023-04-02T09:33:59.214Z,94741.00
2023-04-02T09:34:58.906Z,94739.00
2023-04-02T09:35:58.953Z,94739.00
2023-04-02T09:36:58.934Z,94737.00
2023-04-02T09:37:58.954Z,94737.00
2023-04-02T09:38:58.978Z,94739.00
2023-04-02T09:39:58.996Z,94741.00
2023-04-02T09:40:59.016Z,94739.00
2023-04-02T09:42:05.778Z,94743.00
2023-04-02T09:42:59.048Z,94743.00
2023-04-02T09:43:59.214Z,94743.00
2023-04-02T09:44:59.068Z,94745.00
2023-04-02T09:45:59.081Z,94745.00
2023-04-02T09:46:59.235Z,94743.00
2023-04-02T09:47:59.209Z,94747.00
2023-04-02T09:48:59.241Z,94747.00
2023-04-02T09:49:59.130Z,94745.00
2023-04-02T09:50:59.150Z,94745.00
2023-04-02T09:51:59.168Z,94745.00
2023-04-02T09:52:59.169Z,94747.00
2023-04-02T09:53:59.190Z,94747.00
2023-04-02T09:54:59.206Z,94747.00
2023-04-02T09:55:59.220Z,94747.00
2023-04-02T09:56:59.251Z,94747.00
2023-04-02T09:58:01.936Z,94749.00
2023-04-02T09:58:59.250Z,94747.00
2023-04-02T09:59:59.269Z,94747.00
2023-04-02T10:00:59.298Z,94745.00
2023-04-02T10:01:59.300Z,94745.00
2023-04-02T10:02:59.389Z,94745.00
2023-04-02T10:03:59.532Z,94749.00
2023-04-02T10:04:59.384Z,94751.00
2023-04-02T10:05:59.370Z,94751.00
2023-04-02T10:06:59.383Z,94751.00
2023-04-02T10:07:59.395Z,94753.00
2023-04-02T10:08:59.410Z,94755.00
2023-04-02T10:09:59.425Z,94753.00
2023-04-02T10:10:59.441Z,94753.00
2023-04-02T10:11:59.465Z,94753.00
2023-04-02T10:12:59.477Z,94751.00
2023-04-02T10:13:59.493Z,94755.00
2023-04-02T10:15:02.230Z,94755.00
2023-04-02T10:15:59.727Z,94753.00
2023-04-02T10:17:00.323Z,94751.00
2023-04-02T10:17:59.598Z,94753.00
2023-04-02T10:18:59.582Z,94751.00
2023-04-02T10:19:58.589Z,94751.00
2023-04-02T10:20:59.620Z,94749.00
2023-04-02T10:21:59.615Z,94749.00
2023-04-02T10:22:59.631Z,94747.00
2023-04-02T10:23:59.667Z,94747.00
2023-04-02T10:24:59.674Z,94747.00
2023-04-02T10:25:59.673Z,94751.00
2023-04-02T10:26:59.704Z,94751.00
2023-04-02T10:27:59.695Z,94749.00
2023-04-02T10:28:59.710Z,94753.00
2023-04-02T10:30:00.721Z,94753.00
2023-04-02T10:30:59.774Z,94751.00
2023-04-02T10:31:59.760Z,94751.00
2023-04-02T10:32:59.797Z,94753.00
2023-04-02T10:33:59.780Z,94757.00
2023-04-02T10:34:59.785Z,94758.00
2023-04-02T10:35:59.876Z,94760.00
2023-04-02T10:36:59.850Z,94760.00
2023-04-02T10:37:59.869Z,94762.00
2023-04-02T10:38:59.855Z,94762.00
2023-04-02T10:39:59.865Z,94764.00
2023-04-02T10:40:59.865Z,94760.00
2023-04-02T10:41:59.879Z,94762.00
2023-04-02T10:42:59.893Z,94762.00
2023-04-02T10:44:09.191Z,94760.00
2023-04-02T10:44:59.909Z,94760.00
2023-04-02T10:45:59.939Z,94762.00
2023-04-02T10:47:00.233Z,94760.00
2023-04-02T10:47:59.983Z,94766.00
2023-04-02T10:48:59.964Z,94766.00
2023-04-02T10:49:59.974Z,94766.00
2023-04-02T10:50:59.996Z,94768.00
2023-04-02T10:52:00.008Z,94770.00
2023-04-02T10:53:00.056Z,94768.00
2023-04-02T10:54:00.038Z,94768.00
2023-04-02T10:55:00.105Z,94772.00
2023-04-02T10:56:00.068Z,94768.00
2023-04-02T10:57:00.135Z,94770.00
2023-04-02T10:58:00.114Z,94772.00
2023-04-02T10:59:00.107Z,94770.00
2023-04-02T11:00:00.161Z,94774.00
2023-04-02T11:01:00.211Z,94776.00
2023-04-02T11:02:00.259Z,94776.00
2023-04-02T11:03:00.241Z,94778.00
2023-04-02T11:04:00.248Z,94780.00
2023-04-02T11:05:01.790Z,94778.00
2023-04-02T11:06:00.186Z,94778.00
2023-04-02T11:07:11.078Z,94780.00
2023-04-02T11:08:00.243Z,94782.00
2023-04-02T11:09:00.248Z,94782.00
2023-04-02T11:10:00.263Z,94784.00
2023-04-02T11:11:00.251Z,94784.00
2023-04-02T11:12:00.251Z,94784.00
2023-04-02T11:13:00.257Z,94782.00
2023-04-02T11:14:00.291Z,94782.00
2023-04-02T11:15:01.241Z,94782.00
2023-04-02T11:16:00.768Z,94780.00
2023-04-02T11:17:00.300Z,94782.00
2023-04-02T11:18:00.383Z,94782.00
2023-04-02T11:19:00.326Z,94782.00
2023-04-02T11:20:00.359Z,94784.00
2023-04-02T11:21:00.349Z,94784.00
2023-04-02T11:22:01.959Z,94784.00
2023-04-02T11:23:00.380Z,94786.00
2023-04-02T11:24:00.399Z,94786.00
2023-04-02T11:25:00.447Z,94786.00
2023-04-02T11:26:00.420Z,94788.00
2023-04-02T11:27:00.430Z,94790.00
2023-04-02T11:28:00.459Z,94792.00
2023-04-02T11:29:00.453Z,94794.00
2023-04-02T11:30:00.476Z,94794.00
2023-04-02T11:31:00.508Z,94792.00
2023-04-02T11:32:00.495Z,94796.00
2023-04-02T11:33:00.536Z,94800.00
2023-04-02T11:34:00.517Z,94800.00
2023-04-02T11:35:07.095Z,94802.00
2023-04-02T11:36:00.604Z,94804.00
2023-04-02T11:37:00.559Z,94806.00
2023-04-02T11:38:00.754Z,94806.00
2023-04-02T11:39:14.500Z,94808.00
2023-04-02T11:40:00.604Z,94808.00
2023-04-02T11:41:00.639Z,94809.00
2023-04-02T11:42:00.621Z,94809.00
2023-04-02T11:43:00.639Z,94809.00
2023-04-02T11:44:00.669Z,94815.00
2023-04-02T11:45:00.675Z,94811.00